Time;durP1;ratioP1;P1;durP2;ratioP2;P2;SDS_P1;SDS_P2;PMS_P1;PMS_P2;Temp;Humidity;BMP_temperature;BMP_pressure;BME280_temperature;BME280_humidity;BME280_pressure;Samples;Min_cycle;Max_cycle;Signal;HPM_P1;HPM_P2
2023/10/29 00:01:14;;;;;;;1.50;0.57;;;;;;;;;;5089919;28;20024;-59
2023/10/29 00:03:40;;;;;;;1.03;0.57;;;;;;;;;;5092282;28;20382;-59
2023/10/29 00:06:10;;;;;;;1.07;0.40;;;;;;;;;;5093860;28;20020;-60
2023/10/29 00:08:37;;;;;;;0.70;0.30;;;;;;;;;;5090236;28;20123;-59
2023/10/29 00:11:04;;;;;;;0.60;0.30;;;;;;;;;;5086754;28;20141;-59
2023/10/29 00:13:30;;;;;;;0.77;0.43;;;;;;;;;;5086695;28;20423;-59
2023/10/29 00:15:58;;;;;;;2.80;0.50;;;;;;;;;;5079330;28;20410;-59
2023/10/29 00:18:24;;;;;;;3.37;0.73;;;;;;;;;;5071611;28;20068;-59
2023/10/29 00:20:51;;;;;;;0.37;0.20;;;;;;;;;;5084115;28;20438;-59
2023/10/29 00:23:18;;;;;;;1.00;0.47;;;;;;;;;;5076064;28;20028;-60
2023/10/29 00:25:44;;;;;;;1.07;0.40;;;;;;;;;;5082084;28;20036;-59
2023/10/29 00:28:11;;;;;;;0.63;0.30;;;;;;;;;;5075217;28;20025;-59
2023/10/29 00:30:38;;;;;;;0.67;0.47;;;;;;;;;;5072684;28;20024;-59
2023/10/29 00:33:06;;;;;;;1.00;0.60;;;;;;;;;;5081230;28;20106;-59
2023/10/29 00:35:33;;;;;;;0.30;0.20;;;;;;;;;;5087440;28;20153;-59
2023/10/29 00:37:59;;;;;;;0.87;0.47;;;;;;;;;;5088246;28;20379;-59
2023/10/29 00:40:30;;;;;;;0.67;0.43;;;;;;;;;;5089787;28;20025;-59
2023/10/29 00:42:58;;;;;;;0.10;0.10;;;;;;;;;;5091858;28;20016;-59
2023/10/29 00:45:26;;;;;;;10.50;0.67;;;;;;;;;;5091622;28;20028;-59
2023/10/29 00:47:53;;;;;;;2.10;0.43;;;;;;;;;;5091319;28;20031;-60
2023/10/29 00:50:20;;;;;;;0.33;0.33;;;;;;;;;;5092838;28;20025;-59
2023/10/29 00:52:50;;;;;;;1.33;0.30;;;;;;;;;;5087114;28;20071;-59
2023/10/29 00:55:17;;;;;;;1.13;0.73;;;;;;;;;;5073250;28;20107;-60
2023/10/29 00:57:43;;;;;;;0.63;0.30;;;;;;;;;;5071167;28;20036;-59
2023/10/29 01:00:10;;;;;;;0.77;0.30;;;;;;;;;;5072954;28;20375;-59
2023/10/29 01:02:37;;;;;;;0.20;0.20;;;;;;;;;;5069822;28;20021;-59
2023/10/29 01:05:05;;;;;;;1.47;0.80;;;;;;;;;;5088300;28;20021;-59
2023/10/29 01:07:32;;;;;;;2.20;1.10;;;;;;;;;;5077865;28;20028;-60
2023/10/29 01:09:59;;;;;;;0.60;0.40;;;;;;;;;;5071717;28;20036;-59
2023/10/29 01:12:29;;;;;;;0.90;0.60;;;;;;;;;;5072203;28;20024;-60
2023/10/29 01:14:55;;;;;;;0.53;0.50;;;;;;;;;;5070824;28;20051;-58
2023/10/29 01:17:23;;;;;;;2.77;0.77;;;;;;;;;;5067104;28;20031;-59
2023/10/29 01:19:51;;;;;;;1.80;0.63;;;;;;;;;;5067097;28;20370;-59
2023/10/29 01:22:18;;;;;;;0.53;0.37;;;;;;;;;;5066966;28;20506;-60
2023/10/29 01:24:45;;;;;;;0.53;0.47;;;;;;;;;;5067350;28;20020;-59
2023/10/29 01:27:12;;;;;;;1.10;0.63;;;;;;;;;;5072129;28;20054;-58
2023/10/29 01:29:38;;;;;;;0.70;0.33;;;;;;;;;;5077117;28;20387;-60
2023/10/29 01:32:05;;;;;;;2.43;0.93;;;;;;;;;;5091848;28;20486;-59
2023/10/29 01:34:32;;;;;;;1.13;0.70;;;;;;;;;;5090101;28;20040;-59
2023/10/29 01:36:59;;;;;;;0.97;0.50;;;;;;;;;;5079429;28;20016;-58
2023/10/29 01:39:25;;;;;;;2.53;1.10;;;;;;;;;;5076359;28;20036;-59
2023/10/29 01:41:55;;;;;;;0.87;0.67;;;;;;;;;;5080181;28;20719;-58
2023/10/29 01:44:23;;;;;;;0.77;0.47;;;;;;;;;;5067718;28;20028;-59
2023/10/29 01:46:50;;;;;;;1.30;0.83;;;;;;;;;;5085832;28;20081;-59
2023/10/29 01:49:17;;;;;;;1.13;0.67;;;;;;;;;;5052394;28;20495;-58
2023/10/29 01:51:46;;;;;;;0.87;0.60;;;;;;;;;;5053031;28;20086;-58
2023/10/29 01:54:13;;;;;;;4.13;1.07;;;;;;;;;;5070136;28;20040;-59
2023/10/29 01:56:39;;;;;;;3.73;0.80;;;;;;;;;;5086667;28;20024;-58
2023/10/29 01:59:06;;;;;;;7.20;0.87;;;;;;;;;;5085501;28;20367;-59
2023/10/29 02:01:32;;;;;;;3.23;1.33;;;;;;;;;;5069165;28;20103;-59
2023/10/29 02:03:59;;;;;;;1.23;0.70;;;;;;;;;;5070048;28;20348;-59
2023/10/29 02:06:26;;;;;;;2.10;1.17;;;;;;;;;;5074939;28;20120;-59
2023/10/29 02:08:53;;;;;;;2.00;0.73;;;;;;;;;;5079275;28;20032;-59
2023/10/29 02:11:20;;;;;;;1.03;0.80;;;;;;;;;;5091128;28;20043;-59
2023/10/29 02:13:46;;;;;;;0.97;0.70;;;;;;;;;;5092734;28;20032;-59
2023/10/29 02:16:13;;;;;;;0.90;0.80;;;;;;;;;;5092936;28;20035;-59
2023/10/29 02:18:40;;;;;;;0.27;0.27;;;;;;;;;;5092579;28;20012;-59
2023/10/29 02:21:06;;;;;;;1.13;0.87;;;;;;;;;;5092644;28;20085;-59
2023/10/29 02:23:34;;;;;;;2.00;1.17;;;;;;;;;;5089276;28;20028;-59
2023/10/29 02:26:00;;;;;;;2.57;1.33;;;;;;;;;;5086568;28;20032;-59
2023/10/29 02:28:27;;;;;;;5.17;1.20;;;;;;;;;;5087264;28;20107;-59
2023/10/29 02:30:54;;;;;;;0.30;0.30;;;;;;;;;;5087202;28;20141;-59
2023/10/29 02:33:22;;;;;;;0.77;0.43;;;;;;;;;;5054706;28;20115;-59
2023/10/29 02:35:50;;;;;;;1.20;0.80;;;;;;;;;;5072322;28;20035;-58
2023/10/29 02:38:18;;;;;;;2.03;1.20;;;;;;;;;;5072201;28;20028;-59
2023/10/29 02:40:44;;;;;;;0.97;0.73;;;;;;;;;;5071980;28;20063;-60
2023/10/29 02:43:13;;;;;;;1.00;0.80;;;;;;;;;;5071939;28;20024;-60
2023/10/29 02:45:41;;;;;;;2.30;1.30;;;;;;;;;;5069620;28;20463;-59
2023/10/29 02:48:07;;;;;;;1.30;0.80;;;;;;;;;;5071382;28;20052;-59
2023/10/29 02:50:37;;;;;;;2.00;1.17;;;;;;;;;;5084698;28;20020;-59
2023/10/29 02:53:04;;;;;;;3.10;1.40;;;;;;;;;;5087044;28;20036;-59
2023/10/29 02:55:32;;;;;;;3.73;1.63;;;;;;;;;;5088628;28;20024;-58
2023/10/29 02:57:58;;;;;;;2.80;0.93;;;;;;;;;;5090397;28;20057;-59
2023/10/29 03:00:25;;;;;;;2.60;1.50;;;;;;;;;;5091916;28;20020;-58
2023/10/29 03:02:52;;;;;;;3.03;1.10;;;;;;;;;;5091704;28;20043;-59
2023/10/29 03:05:19;;;;;;;1.60;0.97;;;;;;;;;;5092255;28;20024;-58
2023/10/29 03:07:45;;;;;;;1.60;1.07;;;;;;;;;;5089959;28;20028;-59
2023/10/29 03:10:12;;;;;;;2.70;1.30;;;;;;;;;;5086711;28;20027;-58
2023/10/29 03:12:39;;;;;;;1.67;0.90;;;;;;;;;;5086563;28;20060;-59
2023/10/29 03:15:06;;;;;;;2.20;1.07;;;;;;;;;;5086940;28;20028;-59
2023/10/29 03:17:32;;;;;;;3.53;1.20;;;;;;;;;;5087334;28;20471;-59
2023/10/29 03:19:59;;;;;;;1.50;1.00;;;;;;;;;;5089917;28;20024;-60
2023/10/29 03:22:26;;;;;;;1.43;0.67;;;;;;;;;;5074355;28;20046;-58
2023/10/29 03:24:53;;;;;;;1.27;0.97;;;;;;;;;;5092030;28;20082;-59
2023/10/29 03:27:20;;;;;;;1.20;0.90;;;;;;;;;;5091570;28;20027;-59
2023/10/29 03:29:47;;;;;;;1.23;0.67;;;;;;;;;;5090984;28;20378;-59
2023/10/29 03:32:14;;;;;;;1.13;0.83;;;;;;;;;;5086717;28;20027;-59
2023/10/29 03:34:41;;;;;;;2.50;0.87;;;;;;;;;;5086623;28;20043;-59
2023/10/29 03:37:07;;;;;;;1.70;0.67;;;;;;;;;;5080917;28;20034;-59
2023/10/29 03:39:34;;;;;;;0.87;0.60;;;;;;;;;;5090471;28;20453;-59
2023/10/29 03:42:02;;;;;;;1.67;1.07;;;;;;;;;;5095700;28;20024;-59
2023/10/29 03:44:29;;;;;;;2.80;1.53;;;;;;;;;;5095698;28;20027;-59
2023/10/29 03:46:56;;;;;;;1.30;0.70;;;;;;;;;;5092020;28;20033;-59
2023/10/29 03:49:23;;;;;;;1.10;0.80;;;;;;;;;;5075344;28;20117;-59
2023/10/29 03:51:49;;;;;;;1.57;0.90;;;;;;;;;;5075191;28;20498;-59
2023/10/29 03:54:16;;;;;;;1.70;1.33;;;;;;;;;;5078373;28;20028;-59
2023/10/29 03:56:43;;;;;;;1.40;0.90;;;;;;;;;;5089926;28;20110;-59
2023/10/29 03:59:09;;;;;;;4.27;1.23;;;;;;;;;;5090339;28;20020;-59
2023/10/29 04:01:36;;;;;;;2.33;0.63;;;;;;;;;;5079928;28;20040;-59
2023/10/29 04:04:03;;;;;;;1.77;1.00;;;;;;;;;;5074126;28;20063;-58
2023/10/29 04:06:31;;;;;;;3.47;0.67;;;;;;;;;;5075136;28;20104;-58
2023/10/29 04:08:58;;;;;;;1.27;0.67;;;;;;;;;;5080747;28;20070;-59
2023/10/29 04:11:25;;;;;;;0.93;0.50;;;;;;;;;;5081860;28;20024;-58
2023/10/29 04:13:52;;;;;;;2.87;1.00;;;;;;;;;;5095200;28;20047;-59
2023/10/29 04:16:18;;;;;;;1.47;1.00;;;;;;;;;;5090059;28;20564;-59
2023/10/29 04:18:45;;;;;;;3.70;1.63;;;;;;;;;;5089874;28;20103;-59
2023/10/29 04:21:13;;;;;;;1.37;1.00;;;;;;;;;;5084904;28;20040;-58
2023/10/29 04:23:40;;;;;;;1.47;1.10;;;;;;;;;;5082715;28;20035;-59
2023/10/29 04:26:06;;;;;;;2.97;1.27;;;;;;;;;;5093197;28;20036;-58
2023/10/29 04:28:33;;;;;;;2.97;1.57;;;;;;;;;;5094917;28;20031;-58
2023/10/29 04:31:00;;;;;;;2.93;1.57;;;;;;;;;;5094936;28;20024;-59
2023/10/29 04:33:27;;;;;;;4.70;1.03;;;;;;;;;;5094408;28;20072;-59
2023/10/29 04:35:54;;;;;;;2.00;1.30;;;;;;;;;;5094386;28;20032;-59
2023/10/29 04:38:21;;;;;;;2.73;0.93;;;;;;;;;;5090977;28;20029;-59
2023/10/29 04:40:47;;;;;;;2.40;1.50;;;;;;;;;;5089325;28;20107;-59
2023/10/29 04:43:14;;;;;;;2.60;1.30;;;;;;;;;;5089323;28;20019;-59
2023/10/29 04:45:40;;;;;;;1.73;1.13;;;;;;;;;;5089318;28;20034;-59
2023/10/29 04:48:07;;;;;;;1.90;1.13;;;;;;;;;;5091716;28;20078;-58
2023/10/29 04:50:34;;;;;;;0.77;0.67;;;;;;;;;;5093557;28;20100;-58
2023/10/29 04:53:02;;;;;;;9.23;1.07;;;;;;;;;;5094395;28;20382;-59
2023/10/29 04:55:29;;;;;;;1.30;0.80;;;;;;;;;;5093853;28;20028;-58
2023/10/29 04:57:57;;;;;;;2.03;1.00;;;;;;;;;;5094030;28;20022;-59
2023/10/29 05:00:23;;;;;;;2.87;0.80;;;;;;;;;;5088918;28;20085;-58
2023/10/29 05:02:50;;;;;;;1.10;0.80;;;;;;;;;;5068689;28;20036;-59
2023/10/29 05:05:17;;;;;;;3.53;1.23;;;;;;;;;;5068810;28;20100;-59
2023/10/29 05:07:45;;;;;;;2.67;1.40;;;;;;;;;;5068646;28;20020;-59
2023/10/29 05:10:15;;;;;;;2.03;1.30;;;;;;;;;;5070075;28;20103;-59
2023/10/29 05:12:42;;;;;;;1.73;1.00;;;;;;;;;;5073651;28;20032;-58
2023/10/29 05:15:10;;;;;;;2.47;1.57;;;;;;;;;;5074546;28;20479;-60
2023/10/29 05:17:37;;;;;;;2.13;1.37;;;;;;;;;;5074431;28;20036;-59
2023/10/29 05:20:04;;;;;;;1.47;1.17;;;;;;;;;;5073717;28;20035;-58
2023/10/29 05:22:30;;;;;;;2.20;1.37;;;;;;;;;;5090917;28;20676;-59
2023/10/29 05:24:57;;;;;;;5.87;1.70;;;;;;;;;;5088420;28;20040;-59
2023/10/29 05:27:24;;;;;;;1.60;1.00;;;;;;;;;;5088607;28;20141;-58
2023/10/29 05:29:50;;;;;;;1.03;0.80;;;;;;;;;;5088563;28;20072;-59
2023/10/29 05:32:17;;;;;;;2.40;1.27;;;;;;;;;;5088901;28;20028;-59
2023/10/29 05:34:44;;;;;;;4.43;1.37;;;;;;;;;;5093525;28;20471;-59
2023/10/29 05:37:11;;;;;;;1.40;0.80;;;;;;;;;;5093680;28;20177;-59
2023/10/29 05:39:37;;;;;;;1.33;0.93;;;;;;;;;;5093300;28;20028;-58
2023/10/29 05:42:04;;;;;;;2.80;1.50;;;;;;;;;;5081823;28;20039;-59
2023/10/29 05:44:31;;;;;;;1.23;0.90;;;;;;;;;;5072139;28;20028;-59
2023/10/29 05:46:57;;;;;;;2.40;1.43;;;;;;;;;;5067782;28;20059;-59
2023/10/29 05:49:24;;;;;;;2.23;1.30;;;;;;;;;;5067976;28;20391;-58
2023/10/29 05:51:51;;;;;;;2.03;0.67;;;;;;;;;;5067405;28;20029;-59
2023/10/29 05:54:18;;;;;;;1.73;1.17;;;;;;;;;;5067473;28;20041;-59
2023/10/29 05:56:46;;;;;;;3.13;1.47;;;;;;;;;;5072835;28;20408;-59
2023/10/29 05:59:13;;;;;;;1.60;1.27;;;;;;;;;;5073021;28;20038;-59
2023/10/29 06:01:40;;;;;;;2.63;1.43;;;;;;;;;;5072688;28;20104;-59
2023/10/29 06:04:07;;;;;;;2.60;1.27;;;;;;;;;;5072717;28;20029;-59
2023/10/29 06:06:34;;;;;;;7.37;1.47;;;;;;;;;;5072780;28;20115;-58
2023/10/29 06:09:00;;;;;;;1.57;1.03;;;;;;;;;;5066624;28;20396;-59
2023/10/29 06:11:27;;;;;;;2.00;1.00;;;;;;;;;;5067511;28;20021;-61
2023/10/29 06:13:57;;;;;;;3.40;1.37;;;;;;;;;;5067211;28;20577;-59
2023/10/29 06:16:24;;;;;;;1.03;0.80;;;;;;;;;;5067071;28;20028;-59
2023/10/29 06:18:51;;;;;;;1.23;1.00;;;;;;;;;;5071697;28;20032;-59
2023/10/29 06:21:22;;;;;;;4.10;1.57;;;;;;;;;;5072301;28;20079;-60
2023/10/29 06:23:49;;;;;;;0.97;0.63;;;;;;;;;;5052524;28;20074;-58
2023/10/29 06:26:16;;;;;;;1.50;1.10;;;;;;;;;;5052106;28;20471;-59
2023/10/29 06:28:42;;;;;;;2.57;1.20;;;;;;;;;;5052425;28;20021;-58
2023/10/29 06:31:10;;;;;;;2.00;1.43;;;;;;;;;;5085219;28;20032;-58
2023/10/29 06:33:41;;;;;;;1.27;0.90;;;;;;;;;;5087206;28;20085;-58
2023/10/29 06:36:08;;;;;;;10.47;1.10;;;;;;;;;;5087212;28;20024;-59
2023/10/29 06:38:35;;;;;;;1.60;1.10;;;;;;;;;;5087093;28;20356;-58
2023/10/29 06:41:02;;;;;;;8.67;1.00;;;;;;;;;;5091206;28;20032;-58
2023/10/29 06:43:29;;;;;;;2.77;1.33;;;;;;;;;;5091777;28;20040;-58
2023/10/29 06:45:56;;;;;;;2.37;1.43;;;;;;;;;;5087314;28;20031;-58
2023/10/29 06:48:23;;;;;;;3.67;1.63;;;;;;;;;;5072106;28;20460;-58
2023/10/29 06:50:50;;;;;;;1.90;1.53;;;;;;;;;;5072102;28;20060;-58
2023/10/29 06:53:17;;;;;;;7.50;2.13;;;;;;;;;;5068127;28;20066;-59
2023/10/29 06:55:44;;;;;;;2.57;1.80;;;;;;;;;;5066637;28;20033;-58
2023/10/29 06:58:11;;;;;;;1.90;1.27;;;;;;;;;;5084977;28;20036;-58
2023/10/29 07:00:38;;;;;;;1.93;1.30;;;;;;;;;;5086544;28;20031;-59
2023/10/29 07:03:04;;;;;;;3.17;1.67;;;;;;;;;;5089968;28;20023;-58
2023/10/29 07:05:31;;;;;;;4.23;1.33;;;;;;;;;;5092292;28;20050;-58
2023/10/29 07:07:58;;;;;;;1.53;1.10;;;;;;;;;;5092092;28;20051;-58
2023/10/29 07:10:25;;;;;;;1.80;1.23;;;;;;;;;;5082765;28;20025;-59
2023/10/29 07:12:53;;;;;;;2.40;1.47;;;;;;;;;;5072634;28;20038;-58
2023/10/29 07:15:20;;;;;;;2.17;1.47;;;;;;;;;;5072914;28;20028;-58
2023/10/29 07:17:47;;;;;;;2.23;1.57;;;;;;;;;;5065627;28;20144;-59
2023/10/29 07:20:13;;;;;;;2.07;1.37;;;;;;;;;;5062170;28;20541;-58
2023/10/29 07:22:40;;;;;;;1.63;1.20;;;;;;;;;;5069697;28;20064;-58
2023/10/29 07:25:07;;;;;;;1.33;1.20;;;;;;;;;;5072929;28;20034;-58
2023/10/29 07:27:34;;;;;;;2.93;1.13;;;;;;;;;;5056420;28;20029;-58
2023/10/29 07:30:02;;;;;;;1.07;0.90;;;;;;;;;;5055605;28;20040;-58
2023/10/29 07:32:29;;;;;;;1.17;0.90;;;;;;;;;;5055691;28;20044;-58
2023/10/29 07:34:56;;;;;;;1.97;1.00;;;;;;;;;;5069873;28;20119;-59
2023/10/29 07:37:22;;;;;;;3.13;1.57;;;;;;;;;;5072424;28;20103;-58
2023/10/29 07:39:49;;;;;;;2.97;1.70;;;;;;;;;;5070495;28;20044;-58
2023/10/29 07:42:16;;;;;;;1.77;1.13;;;;;;;;;;5070520;28;20032;-58
2023/10/29 07:44:42;;;;;;;1.67;1.27;;;;;;;;;;5070313;28;20046;-58
2023/10/29 07:47:10;;;;;;;2.27;1.30;;;;;;;;;;5071645;28;20095;-58
2023/10/29 07:49:37;;;;;;;1.87;1.00;;;;;;;;;;5075207;28;20029;-58
2023/10/29 07:52:05;;;;;;;1.37;1.07;;;;;;;;;;5075462;28;20024;-58
2023/10/29 07:54:32;;;;;;;1.67;0.90;;;;;;;;;;5089820;28;20040;-58
2023/10/29 07:56:59;;;;;;;1.43;1.20;;;;;;;;;;5095370;28;20130;-59
2023/10/29 07:59:25;;;;;;;1.77;1.30;;;;;;;;;;5077942;28;20442;-58
2023/10/29 08:01:52;;;;;;;2.47;1.40;;;;;;;;;;5069837;28;20020;-59
2023/10/29 08:04:19;;;;;;;1.53;1.00;;;;;;;;;;5069988;28;20032;-58
2023/10/29 08:06:46;;;;;;;1.60;1.00;;;;;;;;;;5070046;28;20459;-58
2023/10/29 08:09:12;;;;;;;1.40;1.10;;;;;;;;;;5070284;28;20031;-58
2023/10/29 08:11:39;;;;;;;1.80;1.17;;;;;;;;;;5074967;28;20016;-58
2023/10/29 08:14:06;;;;;;;1.40;0.80;;;;;;;;;;5074665;28;20047;-58
2023/10/29 08:16:32;;;;;;;0.80;0.73;;;;;;;;;;5074764;28;20079;-58
2023/10/29 08:18:59;;;;;;;1.37;1.17;;;;;;;;;;5074802;28;20073;-59
2023/10/29 08:21:26;;;;;;;1.27;0.93;;;;;;;;;;5076232;28;20024;-58
2023/10/29 08:23:53;;;;;;;1.27;0.97;;;;;;;;;;5089361;28;20055;-58
2023/10/29 08:26:19;;;;;;;0.90;0.60;;;;;;;;;;5089862;28;20039;-59
2023/10/29 08:28:46;;;;;;;1.07;0.80;;;;;;;;;;5089775;28;20016;-58
2023/10/29 08:31:12;;;;;;;2.20;0.77;;;;;;;;;;5089960;28;20532;-58
2023/10/29 08:33:39;;;;;;;0.77;0.67;;;;;;;;;;5093952;28;20032;-58
2023/10/29 08:36:06;;;;;;;0.93;0.70;;;;;;;;;;5094838;28;20490;-58
2023/10/29 08:38:34;;;;;;;0.93;0.63;;;;;;;;;;5061350;28;20090;-58
2023/10/29 08:41:01;;;;;;;2.93;0.83;;;;;;;;;;5054563;28;20411;-59
2023/10/29 08:43:28;;;;;;;0.67;0.53;;;;;;;;;;5054474;28;20103;-58
2023/10/29 08:45:54;;;;;;;0.93;0.50;;;;;;;;;;5063608;28;20058;-59
2023/10/29 08:48:22;;;;;;;7.87;0.90;;;;;;;;;;5089742;28;20024;-58
2023/10/29 08:50:48;;;;;;;0.30;0.30;;;;;;;;;;5089117;28;20058;-58
2023/10/29 08:53:15;;;;;;;1.17;0.83;;;;;;;;;;5089234;28;20431;-58
2023/10/29 08:55:42;;;;;;;1.83;0.70;;;;;;;;;;5093273;28;20024;-59
2023/10/29 08:58:09;;;;;;;1.50;0.67;;;;;;;;;;5094517;28;20028;-58
2023/10/29 09:00:36;;;;;;;0.83;0.60;;;;;;;;;;5087092;28;20116;-58
2023/10/29 09:03:03;;;;;;;1.60;0.67;;;;;;;;;;5074117;28;20066;-58
2023/10/29 09:05:30;;;;;;;1.40;0.80;;;;;;;;;;5074123;28;20392;-58
2023/10/29 09:07:56;;;;;;;1.33;0.73;;;;;;;;;;5069549;28;20035;-58
2023/10/29 09:10:23;;;;;;;0.73;0.63;;;;;;;;;;5080116;28;20036;-59
2023/10/29 09:12:50;;;;;;;1.10;0.60;;;;;;;;;;5088803;28;20028;-58
2023/10/29 09:15:17;;;;;;;0.57;0.53;;;;;;;;;;5089086;28;20024;-58
2023/10/29 09:17:43;;;;;;;0.83;0.70;;;;;;;;;;5090489;28;20540;-58
2023/10/29 09:20:12;;;;;;;1.80;0.90;;;;;;;;;;5091827;28;20383;-58
2023/10/29 09:22:38;;;;;;;1.77;1.23;;;;;;;;;;5073558;28;20104;-58
2023/10/29 09:25:06;;;;;;;0.77;0.70;;;;;;;;;;5073660;28;20091;-58
2023/10/29 09:27:32;;;;;;;1.10;0.73;;;;;;;;;;5073330;28;20032;-58
2023/10/29 09:29:59;;;;;;;1.93;0.80;;;;;;;;;;5069878;28;20476;-59
2023/10/29 09:32:26;;;;;;;3.53;0.77;;;;;;;;;;5086772;28;20016;-58
2023/10/29 09:34:54;;;;;;;1.97;0.93;;;;;;;;;;5088394;28;20036;-58
2023/10/29 09:37:21;;;;;;;0.67;0.50;;;;;;;;;;5088139;28;20110;-58
2023/10/29 09:39:48;;;;;;;1.10;0.90;;;;;;;;;;5090910;28;20036;-59
2023/10/29 09:42:17;;;;;;;1.07;0.70;;;;;;;;;;5093559;28;20161;-59
2023/10/29 09:44:45;;;;;;;0.60;0.57;;;;;;;;;;5093424;28;20490;-59
2023/10/29 09:47:19;;;;;;;1.90;0.93;;;;;;;;;;5093419;28;20051;-58
2023/10/29 09:49:45;;;;;;;1.20;0.53;;;;;;;;;;5093496;28;20024;-58
2023/10/29 09:52:12;;;;;;;0.90;0.63;;;;;;;;;;5090429;28;20791;-58
2023/10/29 09:54:39;;;;;;;0.83;0.50;;;;;;;;;;5083499;28;20086;-59
2023/10/29 09:57:06;;;;;;;1.80;0.50;;;;;;;;;;5087845;28;20039;-58
2023/10/29 09:59:33;;;;;;;1.17;0.63;;;;;;;;;;5088098;28;20054;-58
2023/10/29 10:02:01;;;;;;;2.23;1.03;;;;;;;;;;5089636;28;20475;-59
2023/10/29 10:04:27;;;;;;;4.50;1.20;;;;;;;;;;5092909;28;20024;-58
2023/10/29 10:06:56;;;;;;;0.43;0.40;;;;;;;;;;5093191;28;20612;-58
2023/10/29 10:09:23;;;;;;;1.80;0.87;;;;;;;;;;5092714;28;20085;-58
2023/10/29 10:12:03;;;;;;;1.00;0.80;;;;;;;;;;5079053;28;20024;-58
2023/10/29 10:14:30;;;;;;;1.63;0.93;;;;;;;;;;5080105;28;20047;-58
2023/10/29 10:17:12;;;;;;;0.60;0.50;;;;;;;;;;5087498;28;20383;-58
2023/10/29 10:19:40;;;;;;;0.60;0.60;;;;;;;;;;5069921;28;20052;-58
2023/10/29 10:22:07;;;;;;;1.17;0.73;;;;;;;;;;5067371;28;20021;-59
2023/10/29 10:24:41;;;;;;;0.83;0.80;;;;;;;;;;5069867;28;20024;-58
2023/10/29 10:27:09;;;;;;;1.07;0.40;;;;;;;;;;5072583;28;20028;-58
2023/10/29 10:29:35;;;;;;;0.70;0.60;;;;;;;;;;5072034;28;20060;-58
2023/10/29 10:32:06;;;;;;;0.83;0.73;;;;;;;;;;5072630;28;20107;-58
2023/10/29 10:34:34;;;;;;;1.30;0.93;;;;;;;;;;5074935;28;20043;-58
2023/10/29 10:37:02;;;;;;;2.60;1.40;;;;;;;;;;5085927;28;20103;-58
2023/10/29 10:39:31;;;;;;;1.73;1.40;;;;;;;;;;5067040;28;20025;-58
2023/10/29 10:42:00;;;;;;;1.43;1.17;;;;;;;;;;5067360;28;20048;-58
2023/10/29 10:44:31;;;;;;;1.70;1.27;;;;;;;;;;5066961;28;20399;-58
2023/10/29 10:46:58;;;;;;;1.03;0.73;;;;;;;;;;5051345;28;20471;-58
2023/10/29 10:49:26;;;;;;;0.83;0.60;;;;;;;;;;5075245;28;20115;-58
2023/10/29 10:51:58;;;;;;;0.60;0.50;;;;;;;;;;5079493;28;20074;-58
2023/10/29 10:54:25;;;;;;;1.20;0.80;;;;;;;;;;5092309;28;20482;-58
2023/10/29 10:56:53;;;;;;;1.00;0.80;;;;;;;;;;5092201;28;20100;-58
2023/10/29 10:59:20;;;;;;;0.40;0.40;;;;;;;;;;5089133;28;20992;-58
2023/10/29 11:01:50;;;;;;;1.93;1.00;;;;;;;;;;5068016;28;20036;-58
2023/10/29 11:04:18;;;;;;;0.60;0.60;;;;;;;;;;5067214;28;20020;-58
2023/10/29 11:06:45;;;;;;;0.90;0.60;;;;;;;;;;5074427;28;20032;-58
2023/10/29 11:09:17;;;;;;;1.80;0.87;;;;;;;;;;5080612;28;20032;-58
2023/10/29 11:11:47;;;;;;;0.83;0.67;;;;;;;;;;5071926;28;20048;-58
2023/10/29 11:14:14;;;;;;;1.97;1.17;;;;;;;;;;5071322;28;20036;-58
2023/10/29 11:16:48;;;;;;;0.47;0.27;;;;;;;;;;5072065;28;20031;-58
2023/10/29 11:19:34;;;;;;;0.60;0.57;;;;;;;;;;5071844;28;20017;-58
2023/10/29 11:22:13;;;;;;;0.37;0.37;;;;;;;;;;5080413;28;20751;-58
2023/10/29 11:24:40;;;;;;;0.83;0.50;;;;;;;;;;5087013;28;20023;-58
2023/10/29 11:27:33;;;;;;;1.17;0.90;;;;;;;;;;5086658;28;20508;-59
2023/10/29 11:30:19;;;;;;;0.63;0.50;;;;;;;;;;5082603;28;20032;-58
2023/10/29 11:32:59;;;;;;;10.30;0.87;;;;;;;;;;5086926;28;20174;-58
2023/10/29 11:35:26;;;;;;;2.00;1.03;;;;;;;;;;5070269;28;20115;-58
2023/10/29 11:37:53;;;;;;;0.87;0.70;;;;;;;;;;5071423;28;20028;-58
2023/10/29 11:40:26;;;;;;;2.10;1.07;;;;;;;;;;5071599;28;20544;-58
2023/10/29 11:42:53;;;;;;;0.43;0.40;;;;;;;;;;5070982;28;20028;-58
2023/10/29 11:45:25;;;;;;;2.27;1.10;;;;;;;;;;5066124;28;20103;-58
2023/10/29 11:48:11;;;;;;;1.10;0.90;;;;;;;;;;5066212;28;20115;-58
2023/10/29 11:50:38;;;;;;;0.85;0.68;;;;;;;;;;5066429;28;20024;-58
2023/10/29 11:53:05;;;;;;;3.27;0.93;;;;;;;;;;5066267;28;20063;-58
2023/10/29 11:55:42;;;;;;;2.33;0.77;;;;;;;;;;5071240;28;20387;-58
2023/10/29 11:58:09;;;;;;;1.43;1.00;;;;;;;;;;5071362;28;20024;-58
2023/10/29 12:00:39;;;;;;;1.63;0.90;;;;;;;;;;5092378;28;20067;-58
2023/10/29 12:03:05;;;;;;;0.97;0.83;;;;;;;;;;5077407;28;20032;-58
2023/10/29 12:05:32;;;;;;;0.47;0.40;;;;;;;;;;5073873;28;20021;-58
2023/10/29 12:08:00;;;;;;;1.70;0.97;;;;;;;;;;5069543;28;20098;-58
2023/10/29 12:10:26;;;;;;;5.03;0.90;;;;;;;;;;5069366;28;20052;-58
2023/10/29 12:12:53;;;;;;;1.57;0.90;;;;;;;;;;5069717;28;20032;-57
2023/10/29 12:15:20;;;;;;;1.93;1.30;;;;;;;;;;5070343;28;20032;-58
2023/10/29 12:17:47;;;;;;;5.13;1.13;;;;;;;;;;5094999;28;20024;-58
2023/10/29 12:20:25;;;;;;;1.67;0.97;;;;;;;;;;5094949;28;20538;-58
2023/10/29 12:22:56;;;;;;;0.53;0.53;;;;;;;;;;5094439;28;20032;-58
2023/10/29 12:25:24;;;;;;;0.37;0.30;;;;;;;;;;5095101;28;20072;-58
2023/10/29 12:27:50;;;;;;;0.90;0.67;;;;;;;;;;5093913;28;20063;-58
2023/10/29 12:30:35;;;;;;;2.47;0.50;;;;;;;;;;5089747;28;20021;-59
2023/10/29 12:33:21;;;;;;;2.70;0.93;;;;;;;;;;5089793;28;20106;-58
2023/10/29 12:35:48;;;;;;;0.77;0.68;;;;;;;;;;5089360;28;20425;-58
2023/10/29 12:38:15;;;;;;;0.67;0.50;;;;;;;;;;5077611;28;20395;-58
2023/10/29 12:41:01;;;;;;;0.73;0.20;;;;;;;;;;5083825;28;20132;-58
2023/10/29 12:43:37;;;;;;;1.08;0.75;;;;;;;;;;5094751;28;20054;-58
2023/10/29 12:46:05;;;;;;;1.57;1.10;;;;;;;;;;5094518;28;20031;-58
2023/10/29 12:48:32;;;;;;;0.70;0.43;;;;;;;;;;5094663;28;20016;-58
2023/10/29 12:51:00;;;;;;;1.90;1.27;;;;;;;;;;5091863;28;20091;-57
2023/10/29 12:53:28;;;;;;;0.77;0.53;;;;;;;;;;5089036;28;20398;-58
2023/10/29 12:55:55;;;;;;;1.20;0.93;;;;;;;;;;5088713;28;20062;-58
2023/10/29 12:58:22;;;;;;;3.70;0.97;;;;;;;;;;5088754;28;20027;-57
2023/10/29 13:00:51;;;;;;;1.80;1.33;;;;;;;;;;5090724;28;20425;-58
2023/10/29 13:03:18;;;;;;;1.83;1.20;;;;;;;;;;5094413;28;20425;-57
2023/10/29 13:05:45;;;;;;;1.80;1.00;;;;;;;;;;5085473;28;20036;-58
2023/10/29 13:08:14;;;;;;;1.40;0.97;;;;;;;;;;5073757;28;20475;-58
2023/10/29 13:10:44;;;;;;;1.83;1.07;;;;;;;;;;5072853;28;20048;-58
2023/10/29 13:13:10;;;;;;;2.40;1.17;;;;;;;;;;5071521;28;20035;-57
2023/10/29 13:15:37;;;;;;;2.53;1.43;;;;;;;;;;5068273;28;20016;-57
2023/10/29 13:18:04;;;;;;;2.93;1.13;;;;;;;;;;5068214;28;20039;-60
2023/10/29 13:20:33;;;;;;;1.60;0.97;;;;;;;;;;5076815;28;20012;-58
2023/10/29 13:22:59;;;;;;;1.77;1.17;;;;;;;;;;5069700;28;20496;-58
2023/10/29 13:25:26;;;;;;;1.23;0.90;;;;;;;;;;5073543;28;20058;-58
2023/10/29 13:27:53;;;;;;;3.50;0.97;;;;;;;;;;5055658;28;20024;-58
2023/10/29 13:30:19;;;;;;;1.23;0.90;;;;;;;;;;5074604;28;20095;-58
2023/10/29 13:32:47;;;;;;;1.10;0.83;;;;;;;;;;5073136;28;20078;-58
2023/10/29 13:35:16;;;;;;;1.07;0.70;;;;;;;;;;5071645;28;20119;-58
2023/10/29 13:37:44;;;;;;;1.13;0.80;;;;;;;;;;5067998;28;20043;-58
2023/10/29 13:40:11;;;;;;;1.20;0.80;;;;;;;;;;5068149;28;20021;-58
2023/10/29 13:42:38;;;;;;;1.67;0.93;;;;;;;;;;5068074;28;20438;-58
2023/10/29 13:45:05;;;;;;;1.20;0.80;;;;;;;;;;5079711;28;20023;-58
2023/10/29 13:47:31;;;;;;;1.00;0.73;;;;;;;;;;5093018;28;20025;-58
2023/10/29 13:49:58;;;;;;;0.83;0.50;;;;;;;;;;5093568;28;20024;-59
2023/10/29 13:52:25;;;;;;;1.40;0.97;;;;;;;;;;5093436;28;20031;-58
2023/10/29 13:54:51;;;;;;;4.60;0.97;;;;;;;;;;5093401;28;20028;-59
2023/10/29 13:57:18;;;;;;;8.37;1.50;;;;;;;;;;5087870;28;20021;-58
2023/10/29 13:59:46;;;;;;;1.20;0.73;;;;;;;;;;5067608;28;20025;-58
2023/10/29 14:02:13;;;;;;;3.07;1.10;;;;;;;;;;5067719;28;20107;-58
2023/10/29 14:04:41;;;;;;;1.10;0.83;;;;;;;;;;5067401;28;20028;-58
2023/10/29 14:07:09;;;;;;;2.93;0.43;;;;;;;;;;5067446;28;20036;-58
2023/10/29 14:09:35;;;;;;;0.77;0.37;;;;;;;;;;5073642;28;20040;-58
2023/10/29 14:12:02;;;;;;;5.87;0.40;;;;;;;;;;5093108;28;20031;-58
2023/10/29 14:14:29;;;;;;;0.30;0.30;;;;;;;;;;5093001;28;20036;-58
2023/10/29 14:16:55;;;;;;;1.80;0.50;;;;;;;;;;5092846;28;20024;-59
2023/10/29 14:19:23;;;;;;;0.53;0.37;;;;;;;;;;5092732;28;20031;-58
2023/10/29 14:21:52;;;;;;;1.07;0.57;;;;;;;;;;5087077;28;20032;-58
2023/10/29 14:24:19;;;;;;;0.53;0.40;;;;;;;;;;5083103;28;20028;-59
2023/10/29 14:26:46;;;;;;;1.40;0.73;;;;;;;;;;5067158;28;20025;-58
2023/10/29 14:29:12;;;;;;;0.77;0.40;;;;;;;;;;5066999;28;20024;-58
2023/10/29 14:31:39;;;;;;;0.90;0.50;;;;;;;;;;5073058;28;20371;-58
2023/10/29 14:34:06;;;;;;;0.67;0.40;;;;;;;;;;5073240;28;20040;-58
2023/10/29 14:36:33;;;;;;;0.40;0.40;;;;;;;;;;5073224;28;20119;-58
2023/10/29 14:39:00;;;;;;;0.20;0.20;;;;;;;;;;5054842;28;20495;-59
2023/10/29 14:41:27;;;;;;;1.40;0.93;;;;;;;;;;5051868;28;20025;-58
2023/10/29 14:43:53;;;;;;;0.50;0.47;;;;;;;;;;5079925;28;20483;-59
2023/10/29 14:46:20;;;;;;;1.77;0.67;;;;;;;;;;5047091;28;20086;-59